Time;durP1;ratioP1;P1;durP2;ratioP2;P2;SDS_P1;SDS_P2;PMS_P1;PMS_P2;Temp;Humidity;BMP_temperature;BMP_pressure;BME280_temperature;BME280_humidity;BME280_pressure;Samples;Min_cycle;Max_cycle;Signal;HPM_P1;HPM_P2
2022/07/10 00:00:03;;;;;;;;;;;18.10;53.70;;;;;;5039239;28;20706;-51
2022/07/10 00:02:44;;;;;;;1.55;0.82;;;18.20;53.10;;;;;;5041385;28;20123;-53
2022/07/10 00:05:12;;;;;;;2.25;1.20;;;18.10;53.10;;;;;;5042239;28;20084;-57
2022/07/10 00:07:53;;;;;;;1.13;0.82;;;18.10;53.40;;;;;;5036814;28;20465;-58
2022/07/10 00:10:22;;;;;;;3.78;1.45;;;18.00;53.80;;;;;;5037603;28;20041;-51
2022/07/10 00:12:53;;;;;;;2.88;1.23;;;18.00;53.80;;;;;;5045126;28;20475;-52
2022/07/10 00:15:22;;;;;;;2.13;0.93;;;18.00;54.30;;;;;;5036089;28;20041;-52
2022/07/10 00:17:52;;;;;;;3.08;1.38;;;18.00;54.40;;;;;;5042351;28;20045;-50
2022/07/10 00:20:18;;;;;;;2.13;1.30;;;17.90;54.70;;;;;;5053233;28;20041;-52
2022/07/10 00:22:52;;;;;;;3.53;1.17;;;18.00;55.00;;;;;;5052476;28;20573;-55
2022/07/10 00:25:27;;;;;;;4.30;1.20;;;18.00;55.10;;;;;;5042584;28;20029;-51
2022/07/10 00:27:59;;;;;;;2.35;1.15;;;18.00;55.20;;;;;;5036679;28;20041;-51
2022/07/10 00:30:29;;;;;;;2.83;1.10;;;18.10;55.30;;;;;;5043241;28;20091;-52
2022/07/10 00:32:55;;;;;;;5.07;1.00;;;18.20;55.30;;;;;;5045604;28;20048;-51
2022/07/10 00:35:22;;;;;;;1.45;1.20;;;18.10;55.20;;;;;;5032580;28;20115;-55
2022/07/10 00:37:51;;;;;;;5.88;1.73;;;18.30;55.40;;;;;;5031027;28;20096;-52
2022/07/10 00:40:19;;;;;;;3.10;1.35;;;18.30;55.40;;;;;;5044156;28;20041;-54
2022/07/10 00:42:46;;;;;;;1.10;0.85;;;18.30;55.20;;;;;;5052086;28;20037;-50
2022/07/10 00:45:18;;;;;;;2.13;1.02;;;18.40;55.30;;;;;;5038369;28;20485;-55
2022/07/10 00:47:44;;;;;;;2.95;1.00;;;18.40;55.30;;;;;;5041964;28;20033;-51
2022/07/10 00:50:13;;;;;;;1.27;0.70;;;18.50;55.10;;;;;;5044557;28;20076;-54
2022/07/10 00:52:40;;;;;;;2.58;1.63;;;18.50;54.80;;;;;;5052788;28;20044;-51
2022/07/10 00:55:10;;;;;;;3.17;1.23;;;18.50;54.70;;;;;;5034337;28;20045;-55
2022/07/10 00:57:41;;;;;;;1.83;1.20;;;18.60;54.80;;;;;;5040271;28;20049;-54
2022/07/10 01:00:11;;;;;;;3.55;1.25;;;18.60;54.70;;;;;;5051007;28;20040;-54
2022/07/10 01:02:44;;;;;;;2.50;1.10;;;18.60;54.70;;;;;;5052743;28;20389;-55
2022/07/10 01:05:13;;;;;;;3.75;1.15;;;18.50;55.20;;;;;;5033745;28;20045;-54
2022/07/10 01:07:40;;;;;;;2.15;1.20;;;18.60;54.80;;;;;;5040899;28;20038;-51
2022/07/10 01:10:10;;;;;;;2.42;1.17;;;18.60;54.80;;;;;;5050630;28;20055;-55
2022/07/10 01:12:39;;;;;;;3.20;1.10;;;18.60;55.00;;;;;;5032823;28;20562;-54
2022/07/10 01:15:12;;;;;;;4.30;1.08;;;18.60;54.90;;;;;;5029765;28;20498;-52
2022/07/10 01:17:39;;;;;;;2.63;1.23;;;18.60;55.00;;;;;;5041595;28;20046;-56
2022/07/10 01:20:08;;;;;;;3.42;0.98;;;18.60;55.10;;;;;;5050051;28;20076;-53
2022/07/10 01:22:37;;;;;;;1.88;1.10;;;18.60;55.20;;;;;;5042491;28;20033;-54
2022/07/10 01:25:14;;;;;;;3.80;1.00;;;18.60;55.20;;;;;;5034027;28;20046;-51
2022/07/10 01:27:46;;;;;;;2.35;1.27;;;18.60;55.20;;;;;;5043378;28;20037;-55
2022/07/10 01:30:20;;;;;;;2.20;1.13;;;18.60;55.10;;;;;;5051799;28;20067;-50
2022/07/10 01:32:47;;;;;;;1.80;1.00;;;18.60;55.20;;;;;;5042728;28;20428;-50
2022/07/10 01:35:16;;;;;;;4.18;1.20;;;18.60;55.30;;;;;;5047461;28;20112;-53
2022/07/10 01:37:43;;;;;;;3.80;1.40;;;18.60;55.30;;;;;;5046686;28;20397;-50
2022/07/10 01:40:13;;;;;;;2.30;1.20;;;18.60;55.30;;;;;;5051587;28;20044;-54
2022/07/10 01:42:40;;;;;;;6.47;1.30;;;18.60;55.40;;;;;;5036189;28;20095;-53
2022/07/10 01:45:09;;;;;;;2.15;1.13;;;18.60;55.50;;;;;;5042798;28;20037;-53
2022/07/10 01:47:36;;;;;;;3.72;1.70;;;18.60;55.50;;;;;;5049937;28;20040;-52
2022/07/10 01:50:04;;;;;;;3.55;1.02;;;18.70;55.50;;;;;;5039870;28;20107;-50
2022/07/10 01:52:33;;;;;;;4.80;1.52;;;18.70;55.50;;;;;;5042136;28;20045;-53
2022/07/10 01:55:00;;;;;;;3.15;1.20;;;18.70;55.40;;;;;;5048923;28;20049;-54
2022/07/10 01:57:26;;;;;;;3.38;1.38;;;18.70;55.20;;;;;;5050612;28;20072;-52
2022/07/10 01:59:56;;;;;;;3.30;1.20;;;18.70;55.10;;;;;;5027389;28;20160;-50
2022/07/10 02:02:24;;;;;;;2.05;1.15;;;18.70;55.00;;;;;;5038023;28;20033;-54
2022/07/10 02:04:59;;;;;;;3.35;1.02;;;18.70;54.90;;;;;;5043023;28;20102;-53
2022/07/10 02:07:28;;;;;;;1.90;1.20;;;18.60;54.80;;;;;;5050865;28;20119;-53
2022/07/10 02:09:57;;;;;;;4.50;1.50;;;18.60;54.80;;;;;;5036010;28;20041;-52
2022/07/10 02:12:25;;;;;;;4.03;1.48;;;18.50;54.80;;;;;;5042853;28;20120;-53
2022/07/10 02:14:58;;;;;;;2.80;1.23;;;18.40;54.90;;;;;;5034766;28;20037;-52
2022/07/10 02:17:25;;;;;;;3.53;1.20;;;18.40;55.00;;;;;;5043505;28;20045;-52
2022/07/10 02:19:54;;;;;;;2.63;1.08;;;18.40;55.20;;;;;;5032493;28;20095;-54
2022/07/10 02:22:26;;;;;;;;;;;18.30;55.30;;;;;;5036877;28;20038;-50
2022/07/10 02:25:00;;;;;;;3.38;1.42;;;18.30;55.00;;;;;;5047732;28;19928;-51
2022/07/10 02:27:30;;;;;;;2.53;1.20;;;18.20;54.80;;;;;;5050463;28;20041;-51
2022/07/10 02:29:59;;;;;;;2.53;1.40;;;18.20;55.00;;;;;;5030955;28;20048;-54
2022/07/10 02:32:25;;;;;;;5.60;2.08;;;18.00;55.10;;;;;;5039757;28;20515;-55
2022/07/10 02:34:55;;;;;;;1.65;1.35;;;18.10;55.40;;;;;;5030868;28;20049;-55
2022/07/10 02:37:25;;;;;;;3.35;1.65;;;17.90;55.60;;;;;;5028286;28;20045;-52
2022/07/10 02:39:51;;;;;;;2.05;1.67;;;17.90;56.00;;;;;;5029738;28;20452;-55
2022/07/10 02:42:18;;;;;;;3.70;1.70;;;17.80;55.90;;;;;;5042251;28;20037;-55
2022/07/10 02:44:45;;;;;;;3.72;1.45;;;17.80;56.10;;;;;;5050948;28;20094;-55
2022/07/10 02:47:12;;;;;;;1.70;1.50;;;17.80;56.30;;;;;;5041062;28;20493;-53
2022/07/10 02:49:40;;;;;;;4.30;1.88;;;17.80;56.60;;;;;;5040900;28;20404;-51
2022/07/10 02:52:07;;;;;;;2.47;1.55;;;17.80;56.70;;;;;;5042456;28;20069;-50
2022/07/10 02:54:36;;;;;;;4.22;1.58;;;17.70;56.90;;;;;;5044284;28;20045;-50
2022/07/10 02:57:06;;;;;;;4.43;1.50;;;17.70;57.20;;;;;;5032794;28;20056;-52
2022/07/10 02:59:36;;;;;;;6.97;1.63;;;17.80;57.10;;;;;;5043873;28;20095;-54
2022/07/10 03:02:03;;;;;;;3.72;2.00;;;17.80;57.50;;;;;;5048534;28;20041;-52
2022/07/10 03:04:32;;;;;;;2.30;1.95;;;17.80;57.20;;;;;;5039507;28;20034;-53
2022/07/10 03:07:02;;;;;;;2.13;1.42;;;17.80;57.30;;;;;;5038303;28;20034;-54
2022/07/10 03:09:31;;;;;;;4.05;1.85;;;17.80;57.50;;;;;;5037458;28;20659;-53
2022/07/10 03:11:58;;;;;;;5.57;1.80;;;17.80;57.30;;;;;;5030978;28;20092;-50
2022/07/10 03:14:29;;;;;;;3.22;2.00;;;17.80;57.40;;;;;;5029141;28;20072;-55
2022/07/10 03:16:58;;;;;;;2.70;1.60;;;17.80;57.50;;;;;;5030702;28;20044;-51
2022/07/10 03:19:25;;;;;;;5.55;1.65;;;17.80;57.50;;;;;;5042615;28;20033;-50
2022/07/10 03:21:53;;;;;;;3.17;1.60;;;17.90;57.50;;;;;;5050807;28;20041;-52
2022/07/10 03:24:20;;;;;;;2.50;2.08;;;17.90;57.40;;;;;;5036562;28;20041;-54
2022/07/10 03:26:51;;;;;;;5.13;1.52;;;17.90;57.40;;;;;;5041240;28;20448;-51
2022/07/10 03:29:18;;;;;;;3.20;1.33;;;17.90;57.40;;;;;;5050761;28;20045;-54
2022/07/10 03:31:48;;;;;;;5.15;1.80;;;17.90;57.30;;;;;;5048815;28;20229;-51
2022/07/10 03:34:15;;;;;;;2.88;1.77;;;17.90;57.40;;;;;;5027516;28;20037;-53
2022/07/10 03:36:42;;;;;;;2.97;1.38;;;17.90;57.50;;;;;;5035296;28;20098;-50
2022/07/10 03:39:11;;;;;;;3.05;1.17;;;17.90;57.50;;;;;;5042172;28;20041;-52
2022/07/10 03:41:43;;;;;;;3.42;1.45;;;17.90;57.50;;;;;;5045646;28;20120;-51
2022/07/10 03:44:12;;;;;;;4.38;1.50;;;17.90;57.50;;;;;;5042645;28;20038;-52
2022/07/10 03:46:46;;;;;;;2.88;1.58;;;17.90;57.50;;;;;;5042122;28;20369;-53
2022/07/10 03:49:13;;;;;;;3.88;1.48;;;17.90;57.60;;;;;;5050273;28;20500;-51
2022/07/10 03:51:46;;;;;;;3.45;1.83;;;17.90;57.40;;;;;;5043208;28;20088;-55
2022/07/10 03:54:20;;;;;;;2.88;1.67;;;17.90;57.60;;;;;;5027281;28;20071;-51
2022/07/10 03:59:35;;;;;;;2.35;1.40;;;17.90;57.30;;;;;;5010735;28;20050;-50
2022/07/10 04:02:02;;;;;;;2.75;1.50;;;17.90;57.20;;;;;;5033316;28;20107;-51
2022/07/10 04:04:29;;;;;;;2.13;1.08;;;17.90;57.30;;;;;;5042517;28;20033;-52
2022/07/10 04:06:55;;;;;;;4.45;1.60;;;17.80;57.30;;;;;;5050204;28;20045;-56
2022/07/10 04:09:22;;;;;;;4.03;1.20;;;17.90;57.50;;;;;;5039090;28;20443;-51
2022/07/10 04:11:49;;;;;;;4.03;1.77;;;17.80;57.50;;;;;;5031947;28;20075;-55
2022/07/10 04:14:16;;;;;;;2.58;1.70;;;17.70;57.50;;;;;;5040836;28;20095;-53
2022/07/10 04:16:43;;;;;;;3.47;2.40;;;17.70;57.50;;;;;;5040917;28;20037;-52
2022/07/10 04:19:12;;;;;;;2.97;1.65;;;17.70;57.50;;;;;;5045651;28;20037;-51
2022/07/10 04:21:42;;;;;;;3.33;1.50;;;17.70;57.90;;;;;;5049307;28;20511;-52
2022/07/10 04:24:09;;;;;;;4.68;1.73;;;17.70;58.00;;;;;;5036878;28;20038;-53
2022/07/10 04:26:38;;;;;;;2.85;1.63;;;17.60;57.90;;;;;;5045216;28;20045;-54
2022/07/10 04:29:05;;;;;;;2.90;1.60;;;17.70;58.00;;;;;;5053664;28;20389;-52
2022/07/10 04:31:32;;;;;;;3.72;1.65;;;17.60;58.10;;;;;;5037075;28;20143;-53
2022/07/10 04:33:58;;;;;;;4.63;2.15;;;17.70;58.20;;;;;;5042863;28;20056;-51
2022/07/10 04:36:25;;;;;;;3.63;1.55;;;17.60;58.10;;;;;;5034893;28;20038;-53
2022/07/10 04:38:52;;;;;;;3.78;1.90;;;17.60;58.20;;;;;;5029224;28;20051;-51
2022/07/10 04:41:29;;;;;;;4.30;1.90;;;17.60;58.20;;;;;;5040084;28;20041;-52
2022/07/10 04:44:05;;;;;;;4.82;2.05;;;17.70;58.30;;;;;;5044057;28;20049;-51
2022/07/10 04:46:34;;;;;;;3.75;2.00;;;17.70;58.20;;;;;;5051891;28;20041;-55
2022/07/10 04:49:06;;;;;;;1.83;1.45;;;17.70;58.30;;;;;;5030392;28;20076;-51
2022/07/10 04:51:33;;;;;;;4.35;1.83;;;17.70;58.40;;;;;;5043358;28;20041;-51
2022/07/10 04:53:59;;;;;;;3.42;1.65;;;17.80;58.40;;;;;;5045180;28;20048;-51
2022/07/10 04:56:27;;;;;;;2.30;1.65;;;17.90;58.50;;;;;;5051763;28;20047;-50
2022/07/10 04:58:58;;;;;;;3.85;1.90;;;17.90;58.30;;;;;;5033745;28;20087;-50
2022/07/10 05:01:27;;;;;;;3.55;2.00;;;18.00;58.50;;;;;;5044683;28;20037;-53
2022/07/10 05:03:54;;;;;;;2.75;1.92;;;18.00;58.60;;;;;;5053290;28;20059;-51
2022/07/10 05:06:21;;;;;;;4.82;1.73;;;18.10;59.00;;;;;;5044427;28;20096;-53
2022/07/10 05:08:50;;;;;;;3.70;1.90;;;18.10;58.30;;;;;;5023641;28;20061;-52
2022/07/10 05:11:20;;;;;;;3.53;1.80;;;18.20;58.30;;;;;;5038944;28;20059;-52
2022/07/10 05:13:48;;;;;;;4.43;1.90;;;18.20;58.30;;;;;;5031958;28;20899;-49
2022/07/10 05:16:17;;;;;;;4.03;1.67;;;18.30;58.10;;;;;;5035541;28;20049;-55
2022/07/10 05:18:46;;;;;;;1.98;1.48;;;18.30;58.20;;;;;;5034470;28;20065;-54
2022/07/10 05:21:16;;;;;;;3.60;1.67;;;18.40;58.10;;;;;;5032354;28;20046;-49
2022/07/10 05:23:43;;;;;;;2.97;1.80;;;18.40;58.00;;;;;;5031751;28;20034;-52
2022/07/10 05:26:10;;;;;;;2.92;1.90;;;18.50;57.90;;;;;;5032673;28;20509;-50
2022/07/10 05:28:37;;;;;;;2.10;1.92;;;18.50;57.70;;;;;;5033351;28;20132;-54
2022/07/10 05:31:04;;;;;;;2.85;1.75;;;18.50;57.60;;;;;;5033885;28;20049;-52
2022/07/10 05:33:34;;;;;;;3.20;1.48;;;18.60;57.80;;;;;;5032362;28;20056;-51
2022/07/10 05:36:00;;;;;;;2.88;1.90;;;18.60;57.80;;;;;;5031216;28;20458;-51
2022/07/10 05:38:31;;;;;;;5.43;1.80;;;18.70;57.80;;;;;;5033274;28;20513;-55
2022/07/10 05:40:58;;;;;;;3.50;1.55;;;18.70;57.40;;;;;;5032255;28;20088;-54
2022/07/10 05:43:27;;;;;;;4.03;2.22;;;18.70;57.40;;;;;;5032271;28;20072;-50
2022/07/10 05:45:58;;;;;;;3.60;1.60;;;18.80;57.50;;;;;;5026340;28;20041;-55
2022/07/10 05:48:25;;;;;;;3.35;1.60;;;18.80;57.40;;;;;;5037942;28;20068;-53
2022/07/10 05:50:54;;;;;;;3.88;1.50;;;18.80;57.10;;;;;;5035820;28;20049;-52
2022/07/10 05:53:41;;;;;;;14.30;2.08;;;18.90;57.30;;;;;;5031516;28;20041;-53
2022/07/10 05:56:08;;;;;;;2.72;1.80;;;18.90;57.10;;;;;;5039145;28;20052;-54
2022/07/10 05:58:45;;;;;;;1.73;1.50;;;18.90;57.00;;;;;;5043614;28;20036;-55
2022/07/10 06:01:14;;;;;;;4.13;1.83;;;18.90;56.90;;;;;;5052036;28;20484;-53
2022/07/10 06:03:58;;;;;;;2.70;1.67;;;19.00;57.10;;;;;;5027330;28;20049;-53
2022/07/10 06:06:27;;;;;;;5.80;1.70;;;19.00;57.10;;;;;;5026677;28;20103;-57
2022/07/10 06:08:59;;;;;;;5.13;1.80;;;19.00;56.90;;;;;;5041146;28;20275;-50
2022/07/10 06:11:28;;;;;;;3.40;1.75;;;19.00;57.10;;;;;;5030415;28;20111;-56
2022/07/10 06:13:57;;;;;;;3.40;1.90;;;19.00;57.00;;;;;;5029921;28;20061;-55
2022/07/10 06:16:24;;;;;;;2.88;1.20;;;19.00;57.00;;;;;;5034253;28;20041;-58
2022/07/10 06:18:53;;;;;;;3.35;1.98;;;19.00;57.20;;;;;;5032207;28;20061;-55
2022/07/10 06:21:26;;;;;;;5.38;1.83;;;19.10;57.10;;;;;;5039182;28;20550;-54
2022/07/10 06:23:58;;;;;;;2.88;1.55;;;19.10;57.00;;;;;;5028183;28;20049;-58
2022/07/10 06:26:26;;;;;;;2.70;1.58;;;19.10;57.00;;;;;;5031910;28;20501;-56
2022/07/10 06:28:53;;;;;;;2.72;1.80;;;19.20;56.90;;;;;;5029666;28;20100;-53
2022/07/10 06:31:27;;;;;;;3.78;1.42;;;19.20;56.80;;;;;;5030445;28;20049;-58
2022/07/10 06:33:56;;;;;;;4.03;1.45;;;19.30;56.60;;;;;;5039086;28;20055;-58
2022/07/10 06:36:23;;;;;;;2.88;1.58;;;19.30;56.80;;;;;;5027710;28;20080;-55
2022/07/10 06:38:54;;;;;;;2.42;1.60;;;19.40;56.80;;;;;;5024132;28;20139;-57
2022/07/10 06:41:20;;;;;;;4.70;1.75;;;19.40;56.60;;;;;;5033547;28;20500;-52
2022/07/10 06:43:52;;;;;;;5.03;1.90;;;19.50;56.60;;;;;;5041558;28;20037;-53
2022/07/10 06:46:20;;;;;;;2.08;1.17;;;19.50;56.50;;;;;;5022974;28;20095;-58
2022/07/10 06:48:47;;;;;;;4.97;1.75;;;19.50;56.40;;;;;;5015813;28;20112;-56
2022/07/10 06:51:14;;;;;;;8.50;1.85;;;19.60;56.40;;;;;;5027628;28;20049;-55
2022/07/10 06:53:44;;;;;;;4.57;1.90;;;19.60;56.40;;;;;;5029479;28;20044;-55
2022/07/10 06:56:13;;;;;;;2.97;1.42;;;19.70;56.30;;;;;;5032291;28;20052;-53
2022/07/10 06:58:40;;;;;;;4.50;1.88;;;19.70;56.30;;;;;;5031080;28;20096;-56
2022/07/10 07:01:08;;;;;;;3.33;1.77;;;19.70;56.10;;;;;;5035015;23;20453;-58
2022/07/10 07:03:34;;;;;;;1.92;1.50;;;19.70;56.20;;;;;;5035599;28;20041;-59
2022/07/10 07:06:01;;;;;;;3.13;1.92;;;19.80;56.20;;;;;;5042137;28;20110;-59
2022/07/10 07:08:32;;;;;;;2.90;1.63;;;19.80;56.40;;;;;;5020246;28;20025;-58
2022/07/10 07:10:58;;;;;;;5.60;1.70;;;19.80;56.20;;;;;;5013397;28;20791;-58
2022/07/10 07:13:25;;;;;;;4.13;1.90;;;19.80;56.20;;;;;;5022079;28;20042;-59
2022/07/10 07:15:59;;;;;;;6.43;1.63;;;19.80;56.00;;;;;;5023113;28;20622;-60
2022/07/10 07:18:35;;;;;;;4.18;1.70;;;19.90;56.00;;;;;;5013654;28;20073;-59
2022/07/10 07:23:47;;;;;;;5.05;2.33;;;19.90;55.70;;;;;;5018249;28;20042;-59
2022/07/10 07:26:14;;;;;;;6.18;1.48;;;20.00;55.60;;;;;;5019325;28;20501;-59
2022/07/10 07:28:41;;;;;;;4.75;1.40;;;20.00;55.70;;;;;;5016757;28;20052;-59
2022/07/10 07:31:07;;;;;;;4.03;1.45;;;20.00;55.60;;;;;;5026027;28;20046;-59
2022/07/10 07:33:41;;;;;;;3.13;1.67;;;20.10;55.50;;;;;;5019872;28;20223;-57
2022/07/10 07:36:07;;;;;;;3.17;1.23;;;20.10;55.30;;;;;;5009579;28;20490;-59
2022/07/10 07:38:34;;;;;;;4.57;1.20;;;20.10;55.20;;;;;;5016133;28;20037;-59
2022/07/10 07:41:01;;;;;;;3.70;1.30;;;20.10;55.10;;;;;;5011329;28;20506;-59
2022/07/10 07:43:28;;;;;;;3.33;1.27;;;20.00;55.10;;;;;;5023302;28;20631;-60
2022/07/10 07:45:54;;;;;;;2.95;1.40;;;20.10;55.20;;;;;;5006682;28;20073;-59
2022/07/10 07:48:21;;;;;;;5.05;1.23;;;20.10;55.30;;;;;;5011250;28;20037;-59
2022/07/10 07:50:48;;;;;;;1.33;0.90;;;20.10;55.30;;;;;;5007671;28;20648;-60
2022/07/10 07:53:15;;;;;;;2.92;1.10;;;20.20;55.50;;;;;;5010023;28;20460;-59
2022/07/10 07:55:41;;;;;;;6.20;1.50;;;20.30;55.20;;;;;;5020450;28;20053;-59
2022/07/10 07:58:08;;;;;;;3.20;1.48;;;20.40;54.90;;;;;;5021830;28;20049;-60
2022/07/10 08:00:35;;;;;;;1.55;0.95;;;20.50;55.00;;;;;;5029052;28;20037;-60
2022/07/10 08:03:02;;;;;;;4.00;1.60;;;20.50;54.60;;;;;;5023291;28;20072;-60
2022/07/10 08:05:29;;;;;;;2.90;1.63;;;20.60;54.60;;;;;;5011851;28;20070;-59
2022/07/10 08:08:01;;;;;;;3.80;1.30;;;20.70;54.50;;;;;;5024652;28;20096;-59
2022/07/10 08:10:28;;;;;;;5.30;1.43;;;20.80;54.20;;;;;;5023225;28;20037;-59
2022/07/10 08:12:55;;;;;;;4.63;1.20;;;20.90;54.00;;;;;;5021188;28;20299;-60
2022/07/10 08:15:22;;;;;;;4.55;1.50;;;20.90;53.80;;;;;;5023449;28;20103;-60
2022/07/10 08:17:55;;;;;;;5.45;1.40;;;21.00;54.50;;;;;;5024528;28;20521;-60
2022/07/10 08:20:23;;;;;;;6.68;1.95;;;21.10;53.80;;;;;;5023914;28;20050;-57
2022/07/10 08:22:52;;;;;;;4.57;2.05;;;21.10;53.70;;;;;;5023794;28;20123;-59
2022/07/10 08:25:26;;;;;;;3.00;1.45;;;21.20;53.50;;;;;;5015053;28;20489;-59
2022/07/10 08:27:53;;;;;;;7.53;1.33;;;21.30;53.20;;;;;;5013332;28;20038;-59
2022/07/10 08:30:20;;;;;;;3.15;1.77;;;21.40;53.20;;;;;;5011041;28;20088;-60
2022/07/10 08:32:47;;;;;;;4.13;1.63;;;21.50;53.10;;;;;;5013455;28;20045;-59
2022/07/10 08:35:14;;;;;;;3.20;1.42;;;21.50;52.70;;;;;;5013717;28;20096;-60
2022/07/10 08:37:42;;;;;;;2.10;1.27;;;21.50;52.40;;;;;;5028388;28;20041;-60
2022/07/10 08:40:12;;;;;;;3.80;0.95;;;21.60;52.60;;;;;;5014649;28;20092;-60
2022/07/10 08:42:40;;;;;;;2.85;1.67;;;21.60;52.50;;;;;;5011524;28;20623;-59
2022/07/10 08:45:07;;;;;;;2.38;1.20;;;21.60;52.50;;;;;;5013700;28;20038;-58
2022/07/10 08:47:35;;;;;;;5.97;1.60;;;21.60;52.40;;;;;;5024942;28;20103;-59
2022/07/10 08:50:16;;;;;;;4.28;2.58;;;21.60;52.50;;;;;;5015074;28;20062;-60
2022/07/10 08:52:46;;;;;;;4.50;1.80;;;21.70;52.70;;;;;;5009677;28;20046;-60
2022/07/10 08:55:16;;;;;;;3.83;1.90;;;21.60;52.30;;;;;;5015217;28;20046;-60
2022/07/10 08:57:43;;;;;;;3.08;1.58;;;21.60;52.20;;;;;;5015965;28;20053;-59
2022/07/10 09:00:10;;;;;;;5.47;1.73;;;21.60;52.50;;;;;;5012350;28;20065;-59
2022/07/10 09:02:37;;;;;;;4.70;1.33;;;21.50;52.70;;;;;;5016299;28;20493;-60
2022/07/10 09:05:06;;;;;;;6.45;1.85;;;21.50;52.90;;;;;;5024884;28;20037;-59
2022/07/10 09:07:36;;;;;;;3.58;1.48;;;21.40;53.10;;;;;;5015338;28;20038;-60
2022/07/10 09:10:10;;;;;;;2.75;1.13;;;21.30;53.10;;;;;;5008780;28;20046;-60
2022/07/10 09:13:01;;;;;;;4.22;1.67;;;21.30;53.60;;;;;;5008076;28;20505;-60
2022/07/10 09:15:31;;;;;;;7.22;1.42;;;21.20;54.40;;;;;;5019622;28;20046;-60
2022/07/10 09:18:00;;;;;;;5.60;1.48;;;21.20;54.50;;;;;;5012571;28;20073;-60
2022/07/10 09:20:40;;;;;;;4.03;1.25;;;21.10;54.80;;;;;;5011929;28;20037;-62
2022/07/10 09:23:22;;;;;;;5.10;1.77;;;21.00;55.90;;;;;;5027825;28;20065;-60
2022/07/10 09:25:51;;;;;;;3.88;1.35;;;20.90;55.80;;;;;;5028428;28;20049;-59
2022/07/10 09:28:20;;;;;;;5.57;2.47;;;20.90;55.70;;;;;;5032361;28;20038;-60
2022/07/10 09:30:47;;;;;;;3.20;1.60;;;20.90;56.40;;;;;;5015843;28;20046;-59
2022/07/10 09:33:25;;;;;;;2.30;1.20;;;20.90;56.50;;;;;;5006732;28;20053;-60
2022/07/10 09:36:08;;;;;;;4.13;1.60;;;20.90;56.90;;;;;;5021107;28;20132;-60
2022/07/10 09:38:44;;;;;;;4.25;2.03;;;21.00;56.80;;;;;;4992768;28;20109;-60
2022/07/10 09:41:24;;;;;;;2.45;1.25;;;21.00;56.50;;;;;;5016947;28;20543;-60
2022/07/10 09:43:57;;;;;;;2.33;1.27;;;21.10;56.60;;;;;;5020891;28;20045;-60
2022/07/10 09:46:38;;;;;;;2.92;1.90;;;21.20;56.70;;;;;;5030138;28;20041;-60
2022/07/10 09:49:07;;;;;;;4.15;1.63;;;21.40;56.10;;;;;;5009127;28;20046;-59
2022/07/10 09:51:39;;;;;;;2.95;1.48;;;21.50;55.50;;;;;;5018595;28;20393;-60
2022/07/10 09:54:14;;;;;;;4.05;1.50;;;21.60;55.10;;;;;;5013209;28;20045;-59
2022/07/10 09:56:55;;;;;;;2.05;1.17;;;21.70;54.90;;;;;;5020818;28;20099;-59
2022/07/10 09:59:22;;;;;;;2.30;1.30;;;21.70;54.40;;;;;;5021810;28;20496;-59
2022/07/10 10:01:51;;;;;;;3.88;1.40;;;21.70;54.30;;;;;;5015350;28;20046;-59
2022/07/10 10:04:20;;;;;;;3.80;1.42;;;21.70;54.40;;;;;;5017204;28;20037;-59
2022/07/10 10:06:52;;;;;;;2.75;1.30;;;21.70;54.60;;;;;;5012638;28;20026;-60
2022/07/10 10:09:25;;;;;;;2.72;1.40;;;21.60;54.80;;;;;;5007299;28;20048;-59
2022/07/10 10:11:57;;;;;;;5.13;1.42;;;21.60;54.80;;;;;;5010068;28;20046;-59
2022/07/10 10:14:27;;;;;;;;;;;21.60;55.40;;;;;;5009985;28;20049;-59
2022/07/10 10:16:55;;;;;;;6.22;1.58;;;21.70;55.60;;;;;;5007773;28;19921;-58
2022/07/10 10:22:11;;;;;;;3.05;1.50;;;21.70;55.30;;;;;;5016723;28;20044;-58
2022/07/10 10:24:42;;;;;;;3.15;1.92;;;21.80;55.00;;;;;;5024743;28;20041;-59
2022/07/10 10:27:09;;;;;;;4.68;1.90;;;21.80;54.70;;;;;;5009885;28;20465;-59
2022/07/10 10:29:37;;;;;;;3.47;1.35;;;21.80;54.70;;;;;;5018926;28;20503;-60
2022/07/10 10:32:04;;;;;;;1.83;1.10;;;21.80;54.70;;;;;;5018584;28;20077;-59
2022/07/10 10:34:59;;;;;;;3.40;1.38;;;21.90;55.00;;;;;;5007204;28;20460;-60
2022/07/10 10:37:37;;;;;;;3.28;1.88;;;22.00;54.80;;;;;;5007550;28;20480;-59
2022/07/10 10:40:05;;;;;;;5.25;1.42;;;22.10;54.40;;;;;;5014509;28;20099;-59
2022/07/10 10:42:33;;;;;;;4.32;1.95;;;22.20;54.50;;;;;;5012235;28;20551;-59
2022/07/10 10:45:23;;;;;;;4.32;1.50;;;22.30;54.40;;;;;;5017572;28;20046;-59
2022/07/10 10:48:12;;;;;;;;;;;22.40;54.20;;;;;;5009651;28;20521;-59
2022/07/10 10:50:58;;;;;;;3.67;1.40;;;22.50;54.10;;;;;;5010142;28;19922;-60
2022/07/10 10:53:27;;;;;;;3.35;1.52;;;22.60;53.70;;;;;;5008501;28;20123;-60
2022/07/10 10:55:59;;;;;;;5.05;1.40;;;22.70;53.40;;;;;;5015256;28;20045;-60
2022/07/10 10:58:27;;;;;;;1.63;1.25;;;22.80;53.60;;;;;;5011568;28;20048;-59
2022/07/10 11:01:05;;;;;;;4.22;1.50;;;22.90;53.00;;;;;;5009602;28;20046;-59
2022/07/10 11:03:32;;;;;;;5.93;1.92;;;23.10;52.20;;;;;;5007362;28;20053;-58
2022/07/10 11:06:02;;;;;;;3.33;1.48;;;23.10;52.00;;;;;;5017131;28;20042;-60
2022/07/10 11:08:45;;;;;;;3.83;1.90;;;23.20;52.20;;;;;;5022033;28;20060;-60
2022/07/10 11:11:32;;;;;;;4.30;1.50;;;23.30;51.90;;;;;;5015789;28;20615;-62
2022/07/10 11:13:59;;;;;;;4.35;1.50;;;23.50;51.70;;;;;;5002372;28;20038;-63
2022/07/10 11:16:26;;;;;;;3.75;1.70;;;23.50;51.20;;;;;;5021260;28;20042;-62
2022/07/10 11:18:54;;;;;;;5.57;1.90;;;23.60;51.30;;;;;;5024686;28;20037;-61
2022/07/10 11:21:39;;;;;;;4.00;1.95;;;23.60;50.60;;;;;;5028947;28;20088;-62
2022/07/10 11:24:36;;;;;;;3.92;1.73;;;23.60;50.30;;;;;;5011842;28;20065;-62
2022/07/10 11:27:20;;;;;;;6.30;2.28;;;23.60;50.40;;;;;;5022160;28;20610;-62
2022/07/10 11:29:56;;;;;;;2.35;1.55;;;23.70;51.10;;;;;;5030343;28;20042;-62
2022/07/10 11:32:23;;;;;;;5.18;1.70;;;23.80;50.50;;;;;;5009431;28;20505;-62
2022/07/10 11:34:50;;;;;;;1.90;1.65;;;23.80;50.70;;;;;;5020593;28;20069;-61
2022/07/10 11:37:17;;;;;;;4.00;1.75;;;23.90;50.50;;;;;;5020341;28;20054;-62
2022/07/10 11:39:44;;;;;;;3.90;1.45;;;24.00;50.10;;;;;;5012497;28;20046;-62
2022/07/10 11:42:10;;;;;;;3.42;1.70;;;24.10;49.90;;;;;;5006322;28;20034;-62
2022/07/10 11:44:37;;;;;;;4.70;1.88;;;24.10;49.80;;;;;;5026337;28;20427;-62
2022/07/10 11:47:05;;;;;;;3.42;1.70;;;24.10;49.40;;;;;;5022830;28;20050;-62
2022/07/10 11:49:34;;;;;;;4.25;1.58;;;24.00;49.10;;;;;;5008291;28;20042;-62
2022/07/10 11:52:03;;;;;;;3.45;1.83;;;24.00;48.90;;;;;;5010830;28;20074;-62
2022/07/10 11:54:30;;;;;;;1.38;1.25;;;23.90;49.00;;;;;;5019128;28;20062;-61
2022/07/10 11:57:06;;;;;;;4.25;2.28;;;23.80;49.00;;;;;;5024089;28;20050;-62
2022/07/10 11:59:33;;;;;;;3.10;2.30;;;23.70;49.20;;;;;;5019164;28;20081;-62
2022/07/10 12:02:00;;;;;;;3.17;1.63;;;23.70;49.70;;;;;;5009794;28;20498;-62
2022/07/10 12:04:30;;;;;;;3.20;1.40;;;23.60;50.30;;;;;;5024273;28;20044;-61
2022/07/10 12:06:57;;;;;;;3.08;1.35;;;23.70;50.10;;;;;;5031669;28;20065;-62
2022/07/10 12:09:24;;;;;;;3.70;1.70;;;23.70;50.30;;;;;;5032074;28;20050;-61
2022/07/10 12:12:22;;;;;;;2.15;1.73;;;23.80;49.60;;;;;;5012409;28;20037;-61
2022/07/10 12:14:48;;;;;;;2.28;1.40;;;23.80;49.20;;;;;;5013217;28;20643;-63
2022/07/10 12:17:16;;;;;;;4.40;1.65;;;23.90;49.50;;;;;;5024735;28;20041;-61
2022/07/10 12:19:43;;;;;;;4.07;1.63;;;23.90;49.50;;;;;;5020783;28;20517;-63
2022/07/10 12:22:10;;;;;;;2.75;1.48;;;23.90;49.40;;;;;;5024541;28;20033;-62
2022/07/10 12:24:37;;;;;;;4.53;1.60;;;24.00;49.80;;;;;;5028138;28;20037;-61
2022/07/10 12:27:04;;;;;;;5.07;1.83;;;24.10;50.10;;;;;;5033590;28;20574;-61
2022/07/10 12:29:31;;;;;;;4.20;1.70;;;24.30;49.60;;;;;;5018914;28;20048;-61
2022/07/10 12:32:02;;;;;;;1.55;1.10;;;24.40;49.50;;;;;;5017467;28;20038;-62
2022/07/10 12:34:34;;;;;;;2.17;1.40;;;24.60;49.40;;;;;;5019961;28;20096;-62
2022/07/10 12:37:10;;;;;;;2.10;1.40;;;24.90;48.90;;;;;;5008436;28;20046;-62
2022/07/10 12:39:45;;;;;;;3.53;2.00;;;25.10;48.20;;;;;;5009647;28;20037;-62
2022/07/10 12:42:14;;;;;;;3.80;1.45;;;25.30;48.10;;;;;;5012761;28;20100;-62
2022/07/10 12:44:43;;;;;;;3.15;1.13;;;25.30;47.40;;;;;;5013124;28;20108;-62
2022/07/10 12:47:12;;;;;;;2.20;1.20;;;25.30;46.70;;;;;;5005102;28;20108;-62
2022/07/10 12:50:04;;;;;;;3.20;1.02;;;25.30;46.40;;;;;;5019197;28;20033;-62
2022/07/10 12:52:32;;;;;;;1.50;1.10;;;25.10;46.00;;;;;;4994119;28;20050;-62
2022/07/10 12:55:10;;;;;;;1.15;0.98;;;25.00;46.30;;;;;;5008308;28;20453;-62
2022/07/10 12:57:57;;;;;;;4.13;1.33;;;24.80;46.40;;;;;;5009580;28;20501;-62
2022/07/10 13:00:28;;;;;;;1.58;1.00;;;24.60;46.80;;;;;;5015499;28;20048;-61
2022/07/10 13:03:05;;;;;;;2.25;1.50;;;24.50;47.20;;;;;;5011683;28;20413;-62
2022/07/10 13:05:38;;;;;;;1.10;1.02;;;24.40;47.80;;;;;;5010697;28;20108;-62
2022/07/10 13:08:06;;;;;;;4.78;1.40;;;24.40;48.00;;;;;;5020788;28;20046;-62
2022/07/10 13:10:36;;;;;;;1.67;1.50;;;24.50;48.30;;;;;;5016728;28;20406;-61